Chie Maru No.10 — JD2376 — position and weather

sailwx.info

Track history (hours):
 
Tides and Currents Weather Stations Pressure Air Temp Water Temp Dewpoint Dewpoint Depression Visibility Wind Speed Wind Dir Waves Ship Positions

Chie Maru No.10

Last reported at 2018-May-15 10:10 UTC. Time now 2018-May-22 17:41 UTC.
Position N 35°01' E 140°12'.

Length 72 m; draft 3.8 m.

Type: Ship. MMSI: 431000147.

Date/timePositionNaut miles runAvg speedWind from/ knotsBaromVisibWave heightAir tempDewpointWater temp
2018-May-15 10:10N 35°01' E 140°12'313.2
2018-May-15 09:58N 35°00' E 140°09'613.3
2018-May-15 09:30N 34°56' E 140°03'712.8
2018-May-15 08:57N 34°53' E 139°56'612.9
2018-May-15 08:30N 34°52' E 139°49'714.3
2018-May-15 08:00N 34°58' E 139°44'612.5
2018-May-15 07:30N 35°05' E 139°44'612.1
2018-May-15 07:00N 35°10' E 139°46'611.5
2018-May-15 06:30N 35°16' E 139°46'611.5
2018-May-15 06:00N 35°21' E 139°42'4 8.0
2018-May-15 05:30N 35°25' E 139°39'0 0.0
2018-May-15 05:00N 35°25' E 139°39'0 0.0
2018-May-15 04:30N 35°25' E 139°39'0 0.0
2018-May-15 04:00N 35°25' E 139°39'0 0.0
2018-May-15 03:30N 35°25' E 139°39'0 0.0
2018-May-15 03:00N 35°25' E 139°39'0 0.0
2018-May-15 02:30N 35°25' E 139°39'0 0.0
2018-May-15 02:00N 35°25' E 139°39'1 2.9
2018-May-15 01:30N 35°23' E 139°40'1 2.3
2018-May-15 01:00N 35°22' E 139°40'0 0.0
2018-May-15 00:30N 35°22' E 139°40'0 0.0
2018-May-14 23:57N 35°22' E 139°40'0 0.0
2018-May-14 23:30N 35°22' E 139°40'0 0.0
2018-May-14 22:57N 35°22' E 139°40'0 0.0
2018-May-14 22:30N 35°22' E 139°40'0 0.0
2018-May-14 21:57N 35°22' E 139°40'0 0.0
2018-May-14 21:30N 35°22' E 139°40'0 0.0
2018-May-14 21:00N 35°22' E 139°40'0 0.0
2018-May-14 20:30N 35°22' E 139°40'0 0.1
2018-May-14 20:00N 35°22' E 139°40'0 0.0
2018-May-14 19:30N 35°22' E 139°40'0 0.0
2018-May-14 19:00N 35°22' E 139°40'0 0.0
2018-May-14 18:30N 35°22' E 139°40'0 0.0
2018-May-14 18:00N 35°22' E 139°40'0 0.0
2018-May-14 17:30N 35°22' E 139°40'0 0.0
2018-May-14 17:00N 35°22' E 139°40'0 0.1
2018-May-14 16:30N 35°22' E 139°40'0 0.0
2018-May-14 16:00N 35°22' E 139°40'0 0.0
2018-May-14 15:30N 35°22' E 139°40'0 0.0
2018-May-14 15:00N 35°22' E 139°40'0 0.0
2018-May-14 14:30N 35°22' E 139°40'0 0.0
2018-May-14 14:00N 35°22' E 139°40'0 0.0
2018-May-14 13:30N 35°22' E 139°40'0 0.0
2018-May-14 13:00N 35°22' E 139°40'0 0.0
2018-May-14 12:30N 35°22' E 139°40'0 0.0
2018-May-14 12:00N 35°22' E 139°40'0 0.0
2018-May-14 11:30N 35°22' E 139°40'0 0.0
2018-May-14 11:00N 35°22' E 139°40'0 0.0
2018-May-14 10:30N 35°22' E 139°40'2 3.3
2018-May-14 10:01N 35°23' E 139°42'713.2
2018-May-14 09:30N 35°28' E 139°47'3 5.0
2018-May-14 09:00N 35°31' E 139°46'0 0.0
2018-May-14 08:30N 35°31' E 139°46'0 0.0
2018-May-14 08:00N 35°31' E 139°46'0 0.0
2018-May-14 07:30N 35°31' E 139°46'0 0.0
2018-May-14 07:00N 35°31' E 139°46'0 0.0
2018-May-14 06:30N 35°31' E 139°46'0 0.0
2018-May-14 06:00N 35°31' E 139°46'0 0.0
2018-May-14 05:31N 35°31' E 139°46'0 0.0
2018-May-14 05:00N 35°31' E 139°46'0 0.0
2018-May-14 04:30N 35°31' E 139°46'0 0.0
2018-May-14 04:00N 35°31' E 139°46'2 3.8
2018-May-14 03:30N 35°30' E 139°48'1 1.9
2018-May-14 03:00N 35°29' E 139°48'0 0.1
2018-May-14 02:30N 35°29' E 139°48'0 0.0
2018-May-14 02:00N 35°29' E 139°48'0 0.0
2018-May-14 01:30N 35°29' E 139°48'0 0.0
2018-May-14 01:00N 35°29' E 139°48'0 0.0
2018-May-14 00:30N 35°29' E 139°48'0 0.0
2018-May-13 23:57N 35°29' E 139°48'0 0.0
2018-May-13 23:30N 35°29' E 139°48'0 0.0
2018-May-13 23:00N 35°29' E 139°48'0 0.0
2018-May-13 22:27N 35°29' E 139°48'0 0.0
2018-May-13 22:00N 35°29' E 139°48'0 0.0
2018-May-13 21:30N 35°29' E 139°48'0 0.1
2018-May-13 21:00N 35°29' E 139°48'0 0.1
2018-May-13 20:27N 35°29' E 139°48'0 0.0
2018-May-13 19:57N 35°29' E 139°48'0 0.0
2018-May-13 19:30N 35°29' E 139°48'0 0.1
2018-May-13 19:00N 35°29' E 139°48'0 0.0
2018-May-13 18:27N 35°29' E 139°48'0 0.0
2018-May-13 18:00N 35°29' E 139°48'0 0.0
2018-May-13 17:30N 35°29' E 139°48'0 0.0
2018-May-13 17:00N 35°29' E 139°48'0 0.0
2018-May-13 16:30N 35°29' E 139°48'0 0.1
2018-May-13 16:00N 35°29' E 139°48'0 0.1
2018-May-13 15:30N 35°29' E 139°48'0 0.0
2018-May-13 14:54N 35°29' E 139°48'0 0.0
2018-May-13 14:30N 35°29' E 139°48'0 0.0
2018-May-13 14:00N 35°29' E 139°48'0 0.0
2018-May-13 13:30N 35°29' E 139°48'0 0.0
2018-May-13 13:00N 35°29' E 139°48'1 2.1
2018-May-13 12:30N 35°28' E 139°48'611.9
2018-May-13 12:00N 35°22' E 139°45'510.3
2018-May-13 11:30N 35°17' E 139°46'611.3
2018-May-13 11:00N 35°11' E 139°47'713.3
2018-May-13 10:30N 35°05' E 139°43'713.2
2018-May-13 10:00N 35°01' E 139°37'1514.1
2018-May-13 08:58N 34°52' E 139°23'914.4
2018-May-13 08:21N 34°47' E 139°14'814.5
2018-May-13 07:48N 34°42' E 139°07'513.8
2018-May-13 07:28N 34°39' E 139°02'612.6
2018-May-13 07:00N 34°36' E 138°56'1012.8
2018-May-13 06:13N 34°36' E 138°44'313.3
2018-May-13 06:00N 34°38' E 138°41'612.5
2018-May-13 05:30N 34°40' E 138°34'713.2
2018-May-13 04:57N 34°44' E 138°26'613.1
2018-May-13 04:30N 34°46' E 138°20'2 0.7
2018-May-13 01:42N 34°47' E 138°18'0 0.0
2018-May-13 01:25N 34°47' E 138°18'0 0.0
2018-May-13 01:00N 34°47' E 138°18'0 0.1
2018-May-13 00:28N 34°47' E 138°18'0 0.1
2018-May-12 23:53N 34°47' E 138°18'1 3.0
2018-May-12 23:30N 34°46' E 138°19'0 0.0
2018-May-12 15:32N 34°46' E 138°19'0 1.3
2018-May-12 15:27N 34°46' E 138°19'4 9.8
2018-May-12 15:00N 34°44' E 138°24'611.8
2018-May-12 14:29N 34°42' E 138°31'611.9
2018-May-12 14:00N 34°39' E 138°37'1110.8
2018-May-12 13:00N 34°35' E 138°49'5 9.9
2018-May-12 12:30N 34°35' E 138°55'710.4
2018-May-12 11:49N 34°40' E 139°02'411.3
2018-May-12 11:30N 34°42' E 139°04'711.2
2018-May-12 10:55N 34°48' E 139°09'510.5
2018-May-12 10:24N 34°52' E 139°13'511.0
2018-May-12 09:58N 34°55' E 139°17'510.6
2018-May-12 09:29N 34°58' E 139°22'510.0
2018-May-12 08:58N 35°01' E 139°28'5 9.8
2018-May-12 08:30N 35°03' E 139°32'510.8
2018-May-12 08:00N 35°06' E 139°38'510.5
2018-May-12 07:30N 35°09' E 139°43'510.8
2018-May-12 07:00N 35°14' E 139°46'611.3
2018-May-12 06:30N 35°19' E 139°43'611.1
2018-May-12 06:00N 35°25' E 139°43'611.2
2018-May-12 05:30N 35°29' E 139°48'2 4.5
2018-May-12 05:00N 35°31' E 139°46'0 0.0
2018-May-12 04:30N 35°31' E 139°46'0 0.0
2018-May-12 04:00N 35°31' E 139°46'0 0.0
2018-May-12 03:30N 35°31' E 139°46'0 0.0
2018-May-12 03:00N 35°31' E 139°46'0 0.0
2018-May-12 02:30N 35°31' E 139°46'0 0.0
2018-May-12 02:00N 35°31' E 139°46'0 0.0
2018-May-12 01:30N 35°31' E 139°46'0 0.0
2018-May-12 01:00N 35°31' E 139°46'0 0.0
2018-May-12 00:30N 35°31' E 139°46'0 0.0
2018-May-12 00:00N 35°31' E 139°46'0 0.0
2018-May-11 23:30N 35°31' E 139°46'2 4.6
2018-May-11 23:00N 35°30' E 139°49'1 2.2
2018-May-11 22:23N 35°31' E 139°50'0 0.0
2018-May-11 21:41N 35°31' E 139°50'0 0.0
2018-May-11 21:26N 35°31' E 139°50'0 0.0
2018-May-11 20:50N 35°31' E 139°50'0 0.0
2018-May-11 20:29N 35°31' E 139°50'0 0.0
2018-May-11 19:17N 35°31' E 139°50'0 0.0
2018-May-11 18:59N 35°31' E 139°50'0 0.0
2018-May-11 17:59N 35°31' E 139°50'0 0.0
2018-May-11 17:29N 35°31' E 139°50'0 0.0
2018-May-11 16:59N 35°31' E 139°50'0 0.0
2018-May-11 15:59N 35°31' E 139°50'0 0.0
2018-May-11 14:41N 35°31' E 139°50'0 0.0
2018-May-11 14:29N 35°31' E 139°50'0 0.0
2018-May-11 13:59N 35°31' E 139°50'0 0.0
2018-May-11 12:50N 35°31' E 139°50'0 0.0
2018-May-11 12:29N 35°31' E 139°50'0 0.0
2018-May-11 11:44N 35°31' E 139°50'0 0.0
2018-May-11 11:29N 35°31' E 139°50'0 0.0
2018-May-11 10:14N 35°31' E 139°50'0 0.0
2018-May-11 09:53N 35°31' E 139°50'0 0.0
2018-May-11 09:02N 35°31' E 139°50'0 0.0
2018-May-11 08:59N 35°31' E 139°50'0 0.0
2018-May-11 08:23N 35°31' E 139°50'0 0.0
2018-May-11 07:59N 35°31' E 139°50'0 0.0
2018-May-11 07:29N 35°31' E 139°50'1 1.2
2018-May-11 07:00N 35°31' E 139°50'3 5.9
2018-May-11 06:28N 35°31' E 139°46'0 0.0
2018-May-11 06:00N 35°31' E 139°46'0 0.0
2018-May-11 05:30N 35°31' E 139°46'0 0.0
2018-May-11 05:00N 35°31' E 139°46'0 0.0
2018-May-11 04:30N 35°31' E 139°46'0 0.0
2018-May-11 04:00N 35°31' E 139°46'0 0.0
2018-May-11 03:30N 35°31' E 139°46'0 0.0
2018-May-11 02:58N 35°31' E 139°46'0 0.0
2018-May-11 02:30N 35°31' E 139°46'0 0.0
2018-May-11 02:00N 35°31' E 139°46'0 0.0
2018-May-11 01:30N 35°31' E 139°46'0 0.0
2018-May-11 00:58N 35°31' E 139°46'0 0.0
2018-May-11 00:30N 35°31' E 139°46'0 0.4
2018-May-11 00:00N 35°31' E 139°46'3 6.4
2018-May-10 23:30N 35°29' E 139°49'2 3.4
2018-May-10 23:00N 35°28' E 139°48'511.0
2018-May-10 22:30N 35°23' E 139°45'510.8
2018-May-10 22:00N 35°17' E 139°45'510.7
2018-May-10 21:30N 35°12' E 139°47'611.9
2018-May-10 21:00N 35°06' E 139°45'612.2
2018-May-10 20:30N 35°02' E 139°40'612.2
2018-May-10 19:59N 34°58' E 139°34'1712.3
2018-May-10 18:36N 34°48' E 139°17'212.6
2018-May-10 18:28N 34°47' E 139°16'812.2
2018-May-10 17:47N 34°42' E 139°08'311.9
2018-May-10 17:29N 34°40' E 139°04'611.4
2018-May-10 16:56N 34°36' E 138°58'611.1
2018-May-10 16:23N 34°34' E 138°51'612.0
2018-May-10 15:53N 34°34' E 138°44'411.9
2018-May-10 15:30N 34°33' E 138°38'611.7
2018-May-10 14:59N 34°32' E 138°31'911.3
2018-May-10 14:12N 34°32' E 138°20'311.5
2018-May-10 13:55N 34°32' E 138°16'511.9
2018-May-10 13:29N 34°32' E 138°10'611.8
2018-May-10 13:00N 34°32' E 138°03'611.7
2018-May-10 12:29N 34°32' E 137°56'3412.2
2018-May-10 09:43N 34°33' E 137°15'1312.6
2018-May-10 08:41N 34°34' E 136°59'313.2
2018-May-10 08:28N 34°36' E 136°56'612.8
2018-May-10 07:59N 34°40' E 136°51'612.7
2018-May-10 07:30N 34°45' E 136°47'712.9
2018-May-10 07:00N 34°52' E 136°46'612.6
2018-May-10 06:30N 34°58' E 136°47'4 7.9
2018-May-10 06:01N 35°00' E 136°51'0 0.0
2018-May-10 05:30N 35°00' E 136°51'0 0.0
2018-May-10 05:00N 35°00' E 136°51'0 0.0
2018-May-10 04:30N 35°00' E 136°51'0 0.0
2018-May-10 04:00N 35°00' E 136°51'0 0.0
2018-May-10 03:30N 35°00' E 136°51'0 0.0
2018-May-10 03:00N 35°00' E 136°51'0 0.0
2018-May-10 02:30N 35°00' E 136°51'0 0.0
2018-May-10 02:00N 35°00' E 136°51'0 0.0
2018-May-10 01:30N 35°00' E 136°51'0 0.0
2018-May-10 00:59N 35°00' E 136°51'0 0.0
2018-May-10 00:30N 35°00' E 136°51'0 0.0
2018-May-10 00:00N 35°00' E 136°51'0 0.0
2018-May-09 23:30N 35°00' E 136°51'1 2.3
2018-May-09 23:00N 35°00' E 136°50'5 9.4
2018-May-09 22:30N 34°57' E 136°46'0 0.2
2018-May-09 21:58N 34°57' E 136°45'0 0.0
2018-May-09 21:28N 34°57' E 136°45'0 0.3
2018-May-09 21:00N 34°57' E 136°46'5 9.6
2018-May-09 20:31N 34°52' E 136°47'510.8
2018-May-09 20:00N 34°47' E 136°48'611.4
2018-May-09 19:31N 34°42' E 136°52'1810.7
2018-May-09 17:51N 34°33' E 137°10'6412.5
2018-May-09 12:43N 34°34' E 138°28'1712.6
2018-May-09 11:22N 34°35' E 138°49'512.0
2018-May-09 10:58N 34°36' E 138°54'612.8
2018-May-09 10:28N 34°39' E 139°01'812.7
2018-May-09 09:50N 34°45' E 139°08'712.7
2018-May-09 09:15N 34°50' E 139°14'312.3
2018-May-09 08:59N 34°53' E 139°17'612.1
2018-May-09 08:30N 34°57' E 139°22'612.1
2018-May-09 08:00N 35°00' E 139°28'612.6
2018-May-09 07:31N 35°03' E 139°34'713.6
2018-May-09 07:00N 35°07' E 139°42'714.1
2018-May-09 06:30N 35°13' E 139°46'612.8
2018-May-09 06:00N 35°19' E 139°43'612.3
2018-May-09 05:30N 35°24' E 139°40'0 0.8
2018-May-09 05:00N 35°25' E 139°39'0 0.0
2018-May-09 04:30N 35°25' E 139°39'0 0.0
2018-May-09 04:00N 35°25' E 139°39'0 0.0
2018-May-09 03:30N 35°25' E 139°39'0 0.0
2018-May-09 03:00N 35°25' E 139°39'0 0.0
2018-May-09 02:30N 35°25' E 139°39'0 0.0
2018-May-09 02:00N 35°25' E 139°39'0 0.0
2018-May-09 01:30N 35°25' E 139°39'0 0.0
2018-May-09 01:00N 35°25' E 139°39'0 0.0
2018-May-09 00:31N 35°25' E 139°39'0 0.0
2018-May-09 00:01N 35°25' E 139°39'0 0.9
2018-May-08 23:30N 35°24' E 139°39'2 3.3
2018-May-08 23:00N 35°23' E 139°41'0 0.0
2018-May-08 22:30N 35°23' E 139°41'0 0.0
2018-May-08 22:01N 35°23' E 139°41'0 0.0
2018-May-08 21:30N 35°23' E 139°41'0 0.0
2018-May-08 21:01N 35°23' E 139°41'0 0.0
2018-May-08 20:31N 35°23' E 139°41'0 0.0
2018-May-08 20:00N 35°23' E 139°41'0 0.0
2018-May-08 19:30N 35°23' E 139°41'0 0.0
2018-May-08 19:00N 35°23' E 139°41'0 0.0
2018-May-08 18:30N 35°23' E 139°41'0 0.0
2018-May-08 18:00N 35°23' E 139°41'0 0.0
2018-May-08 17:30N 35°23' E 139°41'0 0.0
2018-May-08 17:00N 35°23' E 139°41'0 0.0
2018-May-08 16:30N 35°23' E 139°41'0 0.0
2018-May-08 16:00N 35°23' E 139°41'0 0.0
2018-May-08 15:27N 35°23' E 139°41'0 0.0
2018-May-08 15:00N 35°23' E 139°41'0 0.0
2018-May-08 14:30N 35°23' E 139°41'0 0.0
2018-May-08 14:00N 35°23' E 139°41'0 0.0
2018-May-08 13:30N 35°23' E 139°41'0 0.1
2018-May-08 13:00N 35°23' E 139°41'0 0.0
2018-May-08 12:30N 35°23' E 139°41'0 0.0
2018-May-08 12:00N 35°23' E 139°41'0 0.0
2018-May-08 11:30N 35°23' E 139°41'0 0.1
2018-May-08 11:00N 35°23' E 139°41'0 0.0
2018-May-08 10:27N 35°23' E 139°41'0 0.1
2018-May-08 10:00N 35°23' E 139°41'1 2.2
2018-May-08 09:30N 35°22' E 139°41'510.4
2018-May-08 09:00N 35°18' E 139°45'510.2
2018-May-08 08:31N 35°13' E 139°47'510.5
2018-May-08 08:01N 35°08' E 139°45'510.6
2018-May-08 07:30N 35°03' E 139°41'611.3
2018-May-08 06:57N 34°59' E 139°36'1212.1
2018-May-08 05:56N 34°52' E 139°23'711.7
2018-May-08 05:22N 34°48' E 139°17'511.5
2018-May-08 04:58N 34°45' E 139°12'511.1
2018-May-08 04:28N 34°42' E 139°07'510.5
2018-May-08 04:00N 34°39' E 139°03'510.1
2018-May-08 03:29N 34°36' E 138°58'510.1
2018-May-08 03:00N 34°35' E 138°52'510.2
2018-May-08 02:29N 34°36' E 138°45'611.2
2018-May-08 01:59N 34°37' E 138°39'711.4
2018-May-08 01:24N 34°38' E 138°31'511.5
2018-May-08 01:00N 34°37' E 138°26'611.0
2018-May-08 00:29N 34°35' E 138°19'610.0
2018-May-07 23:56N 34°34' E 138°12'4 9.8
2018-May-07 23:29N 34°33' E 138°07'5 9.8
2018-May-07 22:59N 34°33' E 138°01'3110.7
2018-May-07 20:05N 34°32' E 137°24'112.0
2018-May-07 19:58N 34°32' E 137°22'511.7
2018-May-07 19:30N 34°32' E 137°15'1811.3
2018-May-07 17:55N 34°37' E 136°55'512.6
2018-May-07 17:30N 34°41' E 136°50'612.8
2018-May-07 17:00N 34°46' E 136°47'612.2
2018-May-07 16:31N 34°52' E 136°45'4 8.4
2018-May-07 16:00N 34°56' E 136°45'0 0.1
2018-May-07 15:30N 34°56' E 136°45'0 0.0
2018-May-07 15:00N 34°56' E 136°45'0 0.0
2018-May-07 14:30N 34°56' E 136°45'0 0.0
2018-May-07 14:00N 34°56' E 136°45'0 0.0
2018-May-07 13:30N 34°56' E 136°45'0 0.0
2018-May-07 13:00N 34°56' E 136°45'0 0.0
2018-May-07 12:29N 34°56' E 136°45'0 0.0
2018-May-07 12:00N 34°56' E 136°45'0 0.0
2018-May-07 11:26N 34°56' E 136°45'0 0.0
2018-May-07 11:00N 34°56' E 136°45'0 0.0
2018-May-07 10:30N 34°56' E 136°45'0 0.0
2018-May-07 10:00N 34°56' E 136°45'0 0.1
2018-May-07 09:30N 34°56' E 136°45'0 0.0
2018-May-07 09:00N 34°56' E 136°45'0 0.1
2018-May-07 08:30N 34°56' E 136°45'4 8.8
2018-May-07 08:01N 34°59' E 136°49'2 3.8
2018-May-07 07:31N 35°00' E 136°51'0 0.0
2018-May-07 07:01N 35°00' E 136°51'0 0.0
2018-May-07 06:30N 35°00' E 136°51'0 0.0
2018-May-07 06:00N 35°00' E 136°51'0 0.0
2018-May-07 05:30N 35°00' E 136°51'0 0.0
2018-May-07 05:01N 35°00' E 136°51'0 0.1
2018-May-07 04:31N 35°00' E 136°51'0 0.1
2018-May-07 03:59N 35°00' E 136°51'0 0.0
2018-May-07 03:31N 35°00' E 136°51'0 0.1
2018-May-07 03:01N 35°00' E 136°51'0 0.0
2018-May-07 02:31N 35°00' E 136°51'0 0.1
2018-May-07 02:01N 35°00' E 136°51'0 0.0
2018-May-07 01:31N 35°00' E 136°51'0 0.3
2018-May-07 01:00N 35°00' E 136°51'2 5.0
2018-May-07 00:31N 35°01' E 136°48'5 9.7
2018-May-07 00:01N 34°56' E 136°45'0 0.0
2018-May-06 23:28N 34°56' E 136°45'0 0.0
2018-May-06 22:58N 34°56' E 136°45'0 0.0
2018-May-06 22:28N 34°56' E 136°45'0 0.1
2018-May-06 21:58N 34°56' E 136°45'3 6.9
2018-May-06 21:30N 34°54' E 136°46'612.7
2018-May-06 21:00N 34°47' E 136°48'712.8
2018-May-06 20:30N 34°42' E 136°52'1611.4
2018-May-06 19:03N 34°34' E 137°09'112.1
2018-May-06 18:59N 34°34' E 137°10'711.8
2018-May-06 18:24N 34°35' E 137°19'45 9.9
2018-May-06 13:49N 34°33' E 138°14'10 8.1
2018-May-06 12:37N 34°34' E 138°26'1 8.9
2018-May-06 12:30N 34°34' E 138°27'5 8.5
2018-May-06 11:56N 34°34' E 138°33'1310.2
2018-May-06 10:40N 34°35' E 138°48'511.0
2018-May-06 10:12N 34°36' E 138°55'211.2
2018-May-06 10:00N 34°37' E 138°57'612.0
2018-May-06 09:30N 34°41' E 139°02'711.9
2018-May-06 08:54N 34°46' E 139°08'511.4
2018-May-06 08:27N 34°51' E 139°12'610.9
2018-May-06 07:54N 34°55' E 139°16'410.6
2018-May-06 07:29N 34°57' E 139°21'5 9.4
2018-May-06 07:00N 34°60' E 139°26'5 9.3
2018-May-06 06:30N 35°02' E 139°31'5 9.3
2018-May-06 05:59N 35°04' E 139°36'510.5
2018-May-06 05:30N 35°07' E 139°41'5 9.9
2018-May-06 05:00N 35°11' E 139°45'611.1
2018-May-06 04:30N 35°16' E 139°46'612.1
2018-May-06 04:00N 35°21' E 139°42'611.3
2018-May-06 03:30N 35°26' E 139°46'510.7
2018-May-06 03:00N 35°30' E 139°50'0 0.5
2018-May-06 02:30N 35°30' E 139°50'0 0.1
2018-May-06 02:00N 35°30' E 139°50'0 0.1
2018-May-06 01:18N 35°30' E 139°50'0 0.0
2018-May-06 00:57N 35°30' E 139°50'3 7.3
2018-May-06 00:30N 35°28' E 139°48'510.7
2018-May-06 00:00N 35°23' E 139°44'0 0.1
2018-May-05 23:29N 35°23' E 139°44'0 0.0
2018-May-05 22:59N 35°23' E 139°44'0 0.0
2018-May-05 22:29N 35°23' E 139°44'0 0.0
2018-May-05 21:59N 35°23' E 139°44'0 0.1
2018-May-05 21:29N 35°23' E 139°44'0 0.1
2018-May-05 20:59N 35°23' E 139°44'0 0.1
2018-May-05 20:29N 35°23' E 139°44'0 0.1
2018-May-05 19:59N 35°23' E 139°44'0 0.1
2018-May-05 19:29N 35°23' E 139°44'0 0.1
2018-May-05 18:56N 35°23' E 139°44'0 0.0
2018-May-05 18:29N 35°23' E 139°44'0 0.0
2018-May-05 17:59N 35°23' E 139°44'0 0.0
2018-May-05 17:29N 35°23' E 139°44'0 0.0
2018-May-05 16:59N 35°23' E 139°44'0 0.0
2018-May-05 16:29N 35°23' E 139°44'0 0.0
2018-May-05 15:59N 35°23' E 139°44'0 0.0
2018-May-05 15:29N 35°23' E 139°44'0 0.0
2018-May-05 14:59N 35°23' E 139°44'0 0.0
2018-May-05 14:29N 35°23' E 139°44'0 0.0
2018-May-05 13:59N 35°23' E 139°44'0 0.0
2018-May-05 13:29N 35°23' E 139°44'0 0.0
2018-May-05 12:59N 35°23' E 139°44'0 0.1
2018-May-05 12:29N 35°23' E 139°44'0 0.0
2018-May-05 11:59N 35°23' E 139°44'0 0.0
2018-May-05 11:29N 35°23' E 139°44'0 0.0
2018-May-05 10:56N 35°23' E 139°44'0 0.0
2018-May-05 10:29N 35°23' E 139°44'  
Track history (hours):
 
Tides and Currents Weather Stations Pressure Air Temp Water Temp Dewpoint Dewpoint Depression Visibility Wind Speed Wind Dir Waves Ship Positions

Chie Maru No.10

Last reported at 2018-May-15 10:10 UTC. Time now 2018-May-22 17:41 UTC.
Position N 35°01' E 140°12'.

Length 72 m; draft 3.8 m.

Type: Ship. MMSI: 431000147.

Date/timePositionNaut miles runAvg speedWind from/ knotsBaromVisibWave heightAir tempDewpointWater temp
2018-May-15 10:10N 35°01' E 140°12'313.2
2018-May-15 09:58N 35°00' E 140°09'613.3
2018-May-15 09:30N 34°56' E 140°03'712.8
2018-May-15 08:57N 34°53' E 139°56'612.9
2018-May-15 08:30N 34°52' E 139°49'714.3
2018-May-15 08:00N 34°58' E 139°44'612.5
2018-May-15 07:30N 35°05' E 139°44'612.1
2018-May-15 07:00N 35°10' E 139°46'611.5
2018-May-15 06:30N 35°16' E 139°46'611.5
2018-May-15 06:00N 35°21' E 139°42'4 8.0
2018-May-15 05:30N 35°25' E 139°39'0 0.0
2018-May-15 05:00N 35°25' E 139°39'0 0.0
2018-May-15 04:30N 35°25' E 139°39'0 0.0
2018-May-15 04:00N 35°25' E 139°39'0 0.0
2018-May-15 03:30N 35°25' E 139°39'0 0.0
2018-May-15 03:00N 35°25' E 139°39'0 0.0
2018-May-15 02:30N 35°25' E 139°39'0 0.0
2018-May-15 02:00N 35°25' E 139°39'1 2.9
2018-May-15 01:30N 35°23' E 139°40'1 2.3
2018-May-15 01:00N 35°22' E 139°40'0 0.0
2018-May-15 00:30N 35°22' E 139°40'0 0.0
2018-May-14 23:57N 35°22' E 139°40'0 0.0
2018-May-14 23:30N 35°22' E 139°40'0 0.0
2018-May-14 22:57N 35°22' E 139°40'0 0.0
2018-May-14 22:30N 35°22' E 139°40'0 0.0
2018-May-14 21:57N 35°22' E 139°40'0 0.0
2018-May-14 21:30N 35°22' E 139°40'0 0.0
2018-May-14 21:00N 35°22' E 139°40'0 0.0
2018-May-14 20:30N 35°22' E 139°40'0 0.1
2018-May-14 20:00N 35°22' E 139°40'0 0.0
2018-May-14 19:30N 35°22' E 139°40'0 0.0
2018-May-14 19:00N 35°22' E 139°40'0 0.0
2018-May-14 18:30N 35°22' E 139°40'0 0.0
2018-May-14 18:00N 35°22' E 139°40'0 0.0
2018-May-14 17:30N 35°22' E 139°40'0 0.0
2018-May-14 17:00N 35°22' E 139°40'0 0.1
2018-May-14 16:30N 35°22' E 139°40'0 0.0
2018-May-14 16:00N 35°22' E 139°40'0 0.0
2018-May-14 15:30N 35°22' E 139°40'0 0.0
2018-May-14 15:00N 35°22' E 139°40'0 0.0
2018-May-14 14:30N 35°22' E 139°40'0 0.0
2018-May-14 14:00N 35°22' E 139°40'0 0.0
2018-May-14 13:30N 35°22' E 139°40'0 0.0
2018-May-14 13:00N 35°22' E 139°40'0 0.0
2018-May-14 12:30N 35°22' E 139°40'0 0.0
2018-May-14 12:00N 35°22' E 139°40'0 0.0
2018-May-14 11:30N 35°22' E 139°40'0 0.0
2018-May-14 11:00N 35°22' E 139°40'0 0.0
2018-May-14 10:30N 35°22' E 139°40'2 3.3
2018-May-14 10:01N 35°23' E 139°42'713.2
2018-May-14 09:30N 35°28' E 139°47'3 5.0
2018-May-14 09:00N 35°31' E 139°46'0 0.0
2018-May-14 08:30N 35°31' E 139°46'0 0.0
2018-May-14 08:00N 35°31' E 139°46'0 0.0
2018-May-14 07:30N 35°31' E 139°46'0 0.0
2018-May-14 07:00N 35°31' E 139°46'0 0.0
2018-May-14 06:30N 35°31' E 139°46'0 0.0
2018-May-14 06:00N 35°31' E 139°46'0 0.0
2018-May-14 05:31N 35°31' E 139°46'0 0.0
2018-May-14 05:00N 35°31' E 139°46'0 0.0
2018-May-14 04:30N 35°31' E 139°46'0 0.0
2018-May-14 04:00N 35°31' E 139°46'2 3.8
2018-May-14 03:30N 35°30' E 139°48'1 1.9
2018-May-14 03:00N 35°29' E 139°48'0 0.1
2018-May-14 02:30N 35°29' E 139°48'0 0.0
2018-May-14 02:00N 35°29' E 139°48'0 0.0
2018-May-14 01:30N 35°29' E 139°48'0 0.0
2018-May-14 01:00N 35°29' E 139°48'0 0.0
2018-May-14 00:30N 35°29' E 139°48'0 0.0
2018-May-13 23:57N 35°29' E 139°48'0 0.0
2018-May-13 23:30N 35°29' E 139°48'0 0.0
2018-May-13 23:00N 35°29' E 139°48'0 0.0
2018-May-13 22:27N 35°29' E 139°48'0 0.0
2018-May-13 22:00N 35°29' E 139°48'0 0.0
2018-May-13 21:30N 35°29' E 139°48'0 0.1
2018-May-13 21:00N 35°29' E 139°48'0 0.1
2018-May-13 20:27N 35°29' E 139°48'0 0.0
2018-May-13 19:57N 35°29' E 139°48'0 0.0
2018-May-13 19:30N 35°29' E 139°48'0 0.1
2018-May-13 19:00N 35°29' E 139°48'0 0.0
2018-May-13 18:27N 35°29' E 139°48'0 0.0
2018-May-13 18:00N 35°29' E 139°48'0 0.0
2018-May-13 17:30N 35°29' E 139°48'0 0.0
2018-May-13 17:00N 35°29' E 139°48'0 0.0
2018-May-13 16:30N 35°29' E 139°48'0 0.1
2018-May-13 16:00N 35°29' E 139°48'0 0.1
2018-May-13 15:30N 35°29' E 139°48'0 0.0
2018-May-13 14:54N 35°29' E 139°48'0 0.0
2018-May-13 14:30N 35°29' E 139°48'0 0.0
2018-May-13 14:00N 35°29' E 139°48'0 0.0
2018-May-13 13:30N 35°29' E 139°48'0 0.0
2018-May-13 13:00N 35°29' E 139°48'1 2.1
2018-May-13 12:30N 35°28' E 139°48'611.9
2018-May-13 12:00N 35°22' E 139°45'510.3
2018-May-13 11:30N 35°17' E 139°46'611.3
2018-May-13 11:00N 35°11' E 139°47'713.3
2018-May-13 10:30N 35°05' E 139°43'713.2
2018-May-13 10:00N 35°01' E 139°37'1514.1
2018-May-13 08:58N 34°52' E 139°23'914.4
2018-May-13 08:21N 34°47' E 139°14'814.5
2018-May-13 07:48N 34°42' E 139°07'513.8
2018-May-13 07:28N 34°39' E 139°02'612.6
2018-May-13 07:00N 34°36' E 138°56'1012.8
2018-May-13 06:13N 34°36' E 138°44'313.3
2018-May-13 06:00N 34°38' E 138°41'612.5
2018-May-13 05:30N 34°40' E 138°34'713.2
2018-May-13 04:57N 34°44' E 138°26'613.1
2018-May-13 04:30N 34°46' E 138°20'2 0.7
2018-May-13 01:42N 34°47' E 138°18'0 0.0
2018-May-13 01:25N 34°47' E 138°18'0 0.0
2018-May-13 01:00N 34°47' E 138°18'0 0.1
2018-May-13 00:28N 34°47' E 138°18'0 0.1
2018-May-12 23:53N 34°47' E 138°18'1 3.0
2018-May-12 23:30N 34°46' E 138°19'0 0.0
2018-May-12 15:32N 34°46' E 138°19'0 1.3
2018-May-12 15:27N 34°46' E 138°19'4 9.8
2018-May-12 15:00N 34°44' E 138°24'611.8
2018-May-12 14:29N 34°42' E 138°31'611.9
2018-May-12 14:00N 34°39' E 138°37'1110.8
2018-May-12 13:00N 34°35' E 138°49'5 9.9
2018-May-12 12:30N 34°35' E 138°55'710.4
2018-May-12 11:49N 34°40' E 139°02'411.3
2018-May-12 11:30N 34°42' E 139°04'711.2
2018-May-12 10:55N 34°48' E 139°09'510.5
2018-May-12 10:24N 34°52' E 139°13'511.0
2018-May-12 09:58N 34°55' E 139°17'510.6
2018-May-12 09:29N 34°58' E 139°22'510.0
2018-May-12 08:58N 35°01' E 139°28'5 9.8
2018-May-12 08:30N 35°03' E 139°32'510.8
2018-May-12 08:00N 35°06' E 139°38'510.5
2018-May-12 07:30N 35°09' E 139°43'510.8
2018-May-12 07:00N 35°14' E 139°46'611.3
2018-May-12 06:30N 35°19' E 139°43'611.1
2018-May-12 06:00N 35°25' E 139°43'611.2
2018-May-12 05:30N 35°29' E 139°48'2 4.5
2018-May-12 05:00N 35°31' E 139°46'0 0.0
2018-May-12 04:30N 35°31' E 139°46'0 0.0
2018-May-12 04:00N 35°31' E 139°46'0 0.0
2018-May-12 03:30N 35°31' E 139°46'0 0.0
2018-May-12 03:00N 35°31' E 139°46'0 0.0
2018-May-12 02:30N 35°31' E 139°46'0 0.0
2018-May-12 02:00N 35°31' E 139°46'0 0.0
2018-May-12 01:30N 35°31' E 139°46'0 0.0
2018-May-12 01:00N 35°31' E 139°46'0 0.0
2018-May-12 00:30N 35°31' E 139°46'0 0.0
2018-May-12 00:00N 35°31' E 139°46'0 0.0
2018-May-11 23:30N 35°31' E 139°46'2 4.6
2018-May-11 23:00N 35°30' E 139°49'1 2.2
2018-May-11 22:23N 35°31' E 139°50'0 0.0
2018-May-11 21:41N 35°31' E 139°50'0 0.0
2018-May-11 21:26N 35°31' E 139°50'0 0.0
2018-May-11 20:50N 35°31' E 139°50'0 0.0
2018-May-11 20:29N 35°31' E 139°50'0 0.0
2018-May-11 19:17N 35°31' E 139°50'0 0.0
2018-May-11 18:59N 35°31' E 139°50'0 0.0
2018-May-11 17:59N 35°31' E 139°50'0 0.0
2018-May-11 17:29N 35°31' E 139°50'0 0.0
2018-May-11 16:59N 35°31' E 139°50'0 0.0
2018-May-11 15:59N 35°31' E 139°50'0 0.0
2018-May-11 14:41N 35°31' E 139°50'0 0.0
2018-May-11 14:29N 35°31' E 139°50'0 0.0
2018-May-11 13:59N 35°31' E 139°50'0 0.0
2018-May-11 12:50N 35°31' E 139°50'0 0.0
2018-May-11 12:29N 35°31' E 139°50'0 0.0
2018-May-11 11:44N 35°31' E 139°50'0 0.0
2018-May-11 11:29N 35°31' E 139°50'0 0.0
2018-May-11 10:14N 35°31' E 139°50'0 0.0
2018-May-11 09:53N 35°31' E 139°50'0 0.0
2018-May-11 09:02N 35°31' E 139°50'0 0.0
2018-May-11 08:59N 35°31' E 139°50'0 0.0
2018-May-11 08:23N 35°31' E 139°50'0 0.0
2018-May-11 07:59N 35°31' E 139°50'0 0.0
2018-May-11 07:29N 35°31' E 139°50'1 1.2
2018-May-11 07:00N 35°31' E 139°50'3 5.9
2018-May-11 06:28N 35°31' E 139°46'0 0.0
2018-May-11 06:00N 35°31' E 139°46'0 0.0
2018-May-11 05:30N 35°31' E 139°46'0 0.0
2018-May-11 05:00N 35°31' E 139°46'0 0.0
2018-May-11 04:30N 35°31' E 139°46'0 0.0
2018-May-11 04:00N 35°31' E 139°46'0 0.0
2018-May-11 03:30N 35°31' E 139°46'0 0.0
2018-May-11 02:58N 35°31' E 139°46'0 0.0
2018-May-11 02:30N 35°31' E 139°46'0 0.0
2018-May-11 02:00N 35°31' E 139°46'0 0.0
2018-May-11 01:30N 35°31' E 139°46'0 0.0
2018-May-11 00:58N 35°31' E 139°46'0 0.0
2018-May-11 00:30N 35°31' E 139°46'0 0.4
2018-May-11 00:00N 35°31' E 139°46'3 6.4
2018-May-10 23:30N 35°29' E 139°49'2 3.4
2018-May-10 23:00N 35°28' E 139°48'511.0
2018-May-10 22:30N 35°23' E 139°45'510.8
2018-May-10 22:00N 35°17' E 139°45'510.7
2018-May-10 21:30N 35°12' E 139°47'611.9
2018-May-10 21:00N 35°06' E 139°45'612.2
2018-May-10 20:30N 35°02' E 139°40'612.2
2018-May-10 19:59N 34°58' E 139°34'1712.3
2018-May-10 18:36N 34°48' E 139°17'212.6
2018-May-10 18:28N 34°47' E 139°16'812.2
2018-May-10 17:47N 34°42' E 139°08'311.9
2018-May-10 17:29N 34°40' E 139°04'611.4
2018-May-10 16:56N 34°36' E 138°58'611.1
2018-May-10 16:23N 34°34' E 138°51'612.0
2018-May-10 15:53N 34°34' E 138°44'411.9
2018-May-10 15:30N 34°33' E 138°38'611.7
2018-May-10 14:59N 34°32' E 138°31'911.3
2018-May-10 14:12N 34°32' E 138°20'311.5
2018-May-10 13:55N 34°32' E 138°16'511.9
2018-May-10 13:29N 34°32' E 138°10'611.8
2018-May-10 13:00N 34°32' E 138°03'611.7
2018-May-10 12:29N 34°32' E 137°56'3412.2
2018-May-10 09:43N 34°33' E 137°15'1312.6
2018-May-10 08:41N 34°34' E 136°59'313.2
2018-May-10 08:28N 34°36' E 136°56'612.8
2018-May-10 07:59N 34°40' E 136°51'612.7
2018-May-10 07:30N 34°45' E 136°47'712.9
2018-May-10 07:00N 34°52' E 136°46'612.6
2018-May-10 06:30N 34°58' E 136°47'4 7.9
2018-May-10 06:01N 35°00' E 136°51'0 0.0
2018-May-10 05:30N 35°00' E 136°51'0 0.0
2018-May-10 05:00N 35°00' E 136°51'0 0.0
2018-May-10 04:30N 35°00' E 136°51'0 0.0
2018-May-10 04:00N 35°00' E 136°51'0 0.0
2018-May-10 03:30N 35°00' E 136°51'0 0.0
2018-May-10 03:00N 35°00' E 136°51'0 0.0
2018-May-10 02:30N 35°00' E 136°51'0 0.0
2018-May-10 02:00N 35°00' E 136°51'0 0.0
2018-May-10 01:30N 35°00' E 136°51'0 0.0
2018-May-10 00:59N 35°00' E 136°51'0 0.0
2018-May-10 00:30N 35°00' E 136°51'0 0.0
2018-May-10 00:00N 35°00' E 136°51'0 0.0
2018-May-09 23:30N 35°00' E 136°51'1 2.3
2018-May-09 23:00N 35°00' E 136°50'5 9.4
2018-May-09 22:30N 34°57' E 136°46'0 0.2
2018-May-09 21:58N 34°57' E 136°45'0 0.0
2018-May-09 21:28N 34°57' E 136°45'0 0.3
2018-May-09 21:00N 34°57' E 136°46'5 9.6
2018-May-09 20:31N 34°52' E 136°47'510.8
2018-May-09 20:00N 34°47' E 136°48'611.4
2018-May-09 19:31N 34°42' E 136°52'1810.7
2018-May-09 17:51N 34°33' E 137°10'6412.5
2018-May-09 12:43N 34°34' E 138°28'1712.6
2018-May-09 11:22N 34°35' E 138°49'512.0
2018-May-09 10:58N 34°36' E 138°54'612.8
2018-May-09 10:28N 34°39' E 139°01'812.7
2018-May-09 09:50N 34°45' E 139°08'712.7
2018-May-09 09:15N 34°50' E 139°14'312.3
2018-May-09 08:59N 34°53' E 139°17'612.1
2018-May-09 08:30N 34°57' E 139°22'612.1
2018-May-09 08:00N 35°00' E 139°28'612.6
2018-May-09 07:31N 35°03' E 139°34'713.6
2018-May-09 07:00N 35°07' E 139°42'714.1
2018-May-09 06:30N 35°13' E 139°46'612.8
2018-May-09 06:00N 35°19' E 139°43'612.3
2018-May-09 05:30N 35°24' E 139°40'0 0.8
2018-May-09 05:00N 35°25' E 139°39'0 0.0
2018-May-09 04:30N 35°25' E 139°39'0 0.0
2018-May-09 04:00N 35°25' E 139°39'0 0.0
2018-May-09 03:30N 35°25' E 139°39'0 0.0
2018-May-09 03:00N 35°25' E 139°39'0 0.0
2018-May-09 02:30N 35°25' E 139°39'0 0.0
2018-May-09 02:00N 35°25' E 139°39'0 0.0
2018-May-09 01:30N 35°25' E 139°39'0 0.0
2018-May-09 01:00N 35°25' E 139°39'0 0.0
2018-May-09 00:31N 35°25' E 139°39'0 0.0
2018-May-09 00:01N 35°25' E 139°39'0 0.9
2018-May-08 23:30N 35°24' E 139°39'2 3.3
2018-May-08 23:00N 35°23' E 139°41'0 0.0
2018-May-08 22:30N 35°23' E 139°41'0 0.0
2018-May-08 22:01N 35°23' E 139°41'0 0.0
2018-May-08 21:30N 35°23' E 139°41'0 0.0
2018-May-08 21:01N 35°23' E 139°41'0 0.0
2018-May-08 20:31N 35°23' E 139°41'0 0.0
2018-May-08 20:00N 35°23' E 139°41'0 0.0
2018-May-08 19:30N 35°23' E 139°41'0 0.0
2018-May-08 19:00N 35°23' E 139°41'0 0.0
2018-May-08 18:30N 35°23' E 139°41'0 0.0
2018-May-08 18:00N 35°23' E 139°41'0 0.0
2018-May-08 17:30N 35°23' E 139°41'0 0.0
2018-May-08 17:00N 35°23' E 139°41'0 0.0
2018-May-08 16:30N 35°23' E 139°41'0 0.0
2018-May-08 16:00N 35°23' E 139°41'0 0.0
2018-May-08 15:27N 35°23' E 139°41'0 0.0
2018-May-08 15:00N 35°23' E 139°41'0 0.0
2018-May-08 14:30N 35°23' E 139°41'0 0.0
2018-May-08 14:00N 35°23' E 139°41'0 0.0
2018-May-08 13:30N 35°23' E 139°41'0 0.1
2018-May-08 13:00N 35°23' E 139°41'0 0.0
2018-May-08 12:30N 35°23' E 139°41'0 0.0
2018-May-08 12:00N 35°23' E 139°41'0 0.0
2018-May-08 11:30N 35°23' E 139°41'0 0.1
2018-May-08 11:00N 35°23' E 139°41'0 0.0
2018-May-08 10:27N 35°23' E 139°41'0 0.1
2018-May-08 10:00N 35°23' E 139°41'1 2.2
2018-May-08 09:30N 35°22' E 139°41'510.4
2018-May-08 09:00N 35°18' E 139°45'510.2
2018-May-08 08:31N 35°13' E 139°47'510.5
2018-May-08 08:01N 35°08' E 139°45'510.6
2018-May-08 07:30N 35°03' E 139°41'611.3
2018-May-08 06:57N 34°59' E 139°36'1212.1
2018-May-08 05:56N 34°52' E 139°23'711.7
2018-May-08 05:22N 34°48' E 139°17'511.5
2018-May-08 04:58N 34°45' E 139°12'511.1
2018-May-08 04:28N 34°42' E 139°07'510.5
2018-May-08 04:00N 34°39' E 139°03'510.1
2018-May-08 03:29N 34°36' E 138°58'510.1
2018-May-08 03:00N 34°35' E 138°52'510.2
2018-May-08 02:29N 34°36' E 138°45'611.2
2018-May-08 01:59N 34°37' E 138°39'711.4
2018-May-08 01:24N 34°38' E 138°31'511.5
2018-May-08 01:00N 34°37' E 138°26'611.0
2018-May-08 00:29N 34°35' E 138°19'610.0
2018-May-07 23:56N 34°34' E 138°12'4 9.8
2018-May-07 23:29N 34°33' E 138°07'5 9.8
2018-May-07 22:59N 34°33' E 138°01'3110.7
2018-May-07 20:05N 34°32' E 137°24'112.0
2018-May-07 19:58N 34°32' E 137°22'511.7
2018-May-07 19:30N 34°32' E 137°15'1811.3
2018-May-07 17:55N 34°37' E 136°55'512.6
2018-May-07 17:30N 34°41' E 136°50'612.8
2018-May-07 17:00N 34°46' E 136°47'612.2
2018-May-07 16:31N 34°52' E 136°45'4 8.4
2018-May-07 16:00N 34°56' E 136°45'0 0.1
2018-May-07 15:30N 34°56' E 136°45'0 0.0
2018-May-07 15:00N 34°56' E 136°45'0 0.0
2018-May-07 14:30N 34°56' E 136°45'0 0.0
2018-May-07 14:00N 34°56' E 136°45'0 0.0
2018-May-07 13:30N 34°56' E 136°45'0 0.0
2018-May-07 13:00N 34°56' E 136°45'0 0.0
2018-May-07 12:29N 34°56' E 136°45'0 0.0
2018-May-07 12:00N 34°56' E 136°45'0 0.0
2018-May-07 11:26N 34°56' E 136°45'0 0.0
2018-May-07 11:00N 34°56' E 136°45'0 0.0
2018-May-07 10:30N 34°56' E 136°45'0 0.0
2018-May-07 10:00N 34°56' E 136°45'0 0.1
2018-May-07 09:30N 34°56' E 136°45'0 0.0
2018-May-07 09:00N 34°56' E 136°45'0 0.1
2018-May-07 08:30N 34°56' E 136°45'4 8.8
2018-May-07 08:01N 34°59' E 136°49'2 3.8
2018-May-07 07:31N 35°00' E 136°51'0 0.0
2018-May-07 07:01N 35°00' E 136°51'0 0.0
2018-May-07 06:30N 35°00' E 136°51'0 0.0
2018-May-07 06:00N 35°00' E 136°51'0 0.0
2018-May-07 05:30N 35°00' E 136°51'0 0.0
2018-May-07 05:01N 35°00' E 136°51'0 0.1
2018-May-07 04:31N 35°00' E 136°51'0 0.1
2018-May-07 03:59N 35°00' E 136°51'0 0.0
2018-May-07 03:31N 35°00' E 136°51'0 0.1
2018-May-07 03:01N 35°00' E 136°51'0 0.0
2018-May-07 02:31N 35°00' E 136°51'0 0.1
2018-May-07 02:01N 35°00' E 136°51'0 0.0
2018-May-07 01:31N 35°00' E 136°51'0 0.3
2018-May-07 01:00N 35°00' E 136°51'2 5.0
2018-May-07 00:31N 35°01' E 136°48'5 9.7
2018-May-07 00:01N 34°56' E 136°45'0 0.0
2018-May-06 23:28N 34°56' E 136°45'0 0.0
2018-May-06 22:58N 34°56' E 136°45'0 0.0
2018-May-06 22:28N 34°56' E 136°45'0 0.1
2018-May-06 21:58N 34°56' E 136°45'3 6.9
2018-May-06 21:30N 34°54' E 136°46'612.7
2018-May-06 21:00N 34°47' E 136°48'712.8
2018-May-06 20:30N 34°42' E 136°52'1611.4
2018-May-06 19:03N 34°34' E 137°09'112.1
2018-May-06 18:59N 34°34' E 137°10'711.8
2018-May-06 18:24N 34°35' E 137°19'45 9.9
2018-May-06 13:49N 34°33' E 138°14'10 8.1
2018-May-06 12:37N 34°34' E 138°26'1 8.9
2018-May-06 12:30N 34°34' E 138°27'5 8.5
2018-May-06 11:56N 34°34' E 138°33'1310.2
2018-May-06 10:40N 34°35' E 138°48'511.0
2018-May-06 10:12N 34°36' E 138°55'211.2
2018-May-06 10:00N 34°37' E 138°57'612.0
2018-May-06 09:30N 34°41' E 139°02'711.9
2018-May-06 08:54N 34°46' E 139°08'511.4
2018-May-06 08:27N 34°51' E 139°12'610.9
2018-May-06 07:54N 34°55' E 139°16'410.6
2018-May-06 07:29N 34°57' E 139°21'5 9.4
2018-May-06 07:00N 34°60' E 139°26'5 9.3
2018-May-06 06:30N 35°02' E 139°31'5 9.3
2018-May-06 05:59N 35°04' E 139°36'510.5
2018-May-06 05:30N 35°07' E 139°41'5 9.9
2018-May-06 05:00N 35°11' E 139°45'611.1
2018-May-06 04:30N 35°16' E 139°46'612.1
2018-May-06 04:00N 35°21' E 139°42'611.3
2018-May-06 03:30N 35°26' E 139°46'510.7
2018-May-06 03:00N 35°30' E 139°50'0 0.5
2018-May-06 02:30N 35°30' E 139°50'0 0.1
2018-May-06 02:00N 35°30' E 139°50'0 0.1
2018-May-06 01:18N 35°30' E 139°50'0 0.0
2018-May-06 00:57N 35°30' E 139°50'3 7.3
2018-May-06 00:30N 35°28' E 139°48'510.7
2018-May-06 00:00N 35°23' E 139°44'0 0.1
2018-May-05 23:29N 35°23' E 139°44'0 0.0
2018-May-05 22:59N 35°23' E 139°44'0 0.0
2018-May-05 22:29N 35°23' E 139°44'0 0.0
2018-May-05 21:59N 35°23' E 139°44'0 0.1
2018-May-05 21:29N 35°23' E 139°44'0 0.1
2018-May-05 20:59N 35°23' E 139°44'0 0.1
2018-May-05 20:29N 35°23' E 139°44'0 0.1
2018-May-05 19:59N 35°23' E 139°44'0 0.1
2018-May-05 19:29N 35°23' E 139°44'0 0.1
2018-May-05 18:56N 35°23' E 139°44'0 0.0
2018-May-05 18:29N 35°23' E 139°44'0 0.0
2018-May-05 17:59N 35°23' E 139°44'0 0.0
2018-May-05 17:29N 35°23' E 139°44'0 0.0
2018-May-05 16:59N 35°23' E 139°44'0 0.0
2018-May-05 16:29N 35°23' E 139°44'0 0.0
2018-May-05 15:59N 35°23' E 139°44'0 0.0
2018-May-05 15:29N 35°23' E 139°44'0 0.0
2018-May-05 14:59N 35°23' E 139°44'0 0.0
2018-May-05 14:29N 35°23' E 139°44'0 0.0
2018-May-05 13:59N 35°23' E 139°44'0 0.0
2018-May-05 13:29N 35°23' E 139°44'0 0.0
2018-May-05 12:59N 35°23' E 139°44'0 0.1
2018-May-05 12:29N 35°23' E 139°44'0 0.0
2018-May-05 11:59N 35°23' E 139°44'0 0.0
2018-May-05 11:29N 35°23' E 139°44'0 0.0
2018-May-05 10:56N 35°23' E 139°44'0 0.0
2018-May-05 10:29N 35°23' E 139°44'  

Dump ship's entire track history